createdAt,value
2023-09-27T00:02:00.381Z,10.55
2023-09-27T00:04:26.988Z,10.55
2023-09-27T00:06:53.691Z,10.56
2023-09-27T00:09:21.503Z,10.53
2023-09-27T00:11:48.035Z,10.48
2023-09-27T00:14:14.622Z,10.44
2023-09-27T00:16:41.187Z,10.34
2023-09-27T00:19:07.657Z,10.33
2023-09-27T00:21:34.126Z,10.33
2023-09-27T00:24:00.579Z,10.26
2023-09-27T00:26:28.414Z,10.26
2023-09-27T00:28:55.373Z,10.19
2023-09-27T00:31:22.326Z,10.17
2023-09-27T00:33:48.818Z,10.18
2023-09-27T00:36:15.260Z,10.14
2023-09-27T00:38:41.714Z,10.14
2023-09-27T00:41:08.768Z,10.12
2023-09-27T00:43:36.532Z,10.10
2023-09-27T00:46:06.022Z,10.09
2023-09-27T00:48:34.226Z,10.07
2023-09-27T00:51:01.848Z,10.05
2023-09-27T00:53:32.637Z,10.03
2023-09-27T00:55:59.342Z,10.01
2023-09-27T00:58:26.644Z,9.99
2023-09-27T01:00:55.310Z,9.98
2023-09-27T01:03:21.783Z,9.93
2023-09-27T01:05:48.636Z,9.90
2023-09-27T01:08:15.185Z,9.87
2023-09-27T01:10:42.292Z,9.87
2023-09-27T01:13:09.005Z,9.85
2023-09-27T01:15:35.504Z,9.91
2023-09-27T01:18:04.190Z,9.88
2023-09-27T01:20:32.544Z,9.86
2023-09-27T01:23:01.527Z,9.85
2023-09-27T01:25:29.155Z,9.83
2023-09-27T01:27:55.670Z,9.82
2023-09-27T01:30:22.267Z,9.78
2023-09-27T01:32:48.806Z,9.72
2023-09-27T01:35:15.472Z,9.71
2023-09-27T01:37:41.919Z,9.67
2023-09-27T01:40:11.041Z,9.65
2023-09-27T01:42:37.495Z,9.60
2023-09-27T01:45:04.495Z,9.56
2023-09-27T01:47:31.026Z,9.52
2023-09-27T01:49:57.508Z,9.44
2023-09-27T01:52:23.950Z,9.42
2023-09-27T01:54:50.410Z,9.38
2023-09-27T01:57:18.181Z,9.38
2023-09-27T01:59:44.632Z,9.41
2023-09-27T02:02:11.078Z,9.43
2023-09-27T02:04:37.564Z,9.41
2023-09-27T02:07:04.440Z,9.36
2023-09-27T02:09:30.902Z,9.31
2023-09-27T02:11:57.458Z,9.28
2023-09-27T02:14:25.254Z,9.25
2023-09-27T02:16:51.859Z,9.23
2023-09-27T02:19:18.416Z,9.24
2023-09-27T02:21:44.865Z,9.20
2023-09-27T02:24:11.412Z,9.19
2023-09-27T02:26:37.864Z,9.18
2023-09-27T02:29:04.366Z,9.11
2023-09-27T02:31:32.144Z,9.10
2023-09-27T02:33:58.670Z,9.09
2023-09-27T02:36:25.166Z,9.08
2023-09-27T02:38:51.764Z,9.07
2023-09-27T02:41:18.594Z,9.08
2023-09-27T02:43:45.045Z,9.09
2023-09-27T02:46:11.575Z,9.11
2023-09-27T02:48:39.388Z,9.06
2023-09-27T02:51:05.993Z,9.04
2023-09-27T02:53:32.454Z,9.01
2023-09-27T02:55:59.067Z,8.96
2023-09-27T02:58:25.570Z,8.93
2023-09-27T03:00:52.182Z,8.88
2023-09-27T03:03:18.869Z,8.84
2023-09-27T03:05:46.692Z,8.82
2023-09-27T03:08:13.181Z,8.80
2023-09-27T03:10:39.893Z,8.78
2023-09-27T03:13:06.643Z,8.75
2023-09-27T03:15:33.107Z,8.73
2023-09-27T03:17:59.770Z,8.71
2023-09-27T03:20:26.506Z,8.68
2023-09-27T03:22:54.370Z,8.65
2023-09-27T03:25:20.924Z,8.62
2023-09-27T03:27:47.763Z,8.59
2023-09-27T03:30:14.864Z,8.52
2023-09-27T03:32:41.493Z,8.47
2023-09-27T03:35:09.334Z,8.46
2023-09-27T03:37:35.881Z,8.45
2023-09-27T03:40:04.917Z,8.43
2023-09-27T03:42:31.388Z,8.43
2023-09-27T03:44:57.921Z,8.38
2023-09-27T03:47:24.461Z,8.32
2023-09-27T03:49:51.115Z,8.28
2023-09-27T03:52:17.553Z,8.31
2023-09-27T03:54:44.160Z,8.35
2023-09-27T03:57:11.968Z,8.34
2023-09-27T03:59:38.470Z,8.34
2023-09-27T04:02:05.091Z,8.35
2023-09-27T04:04:31.945Z,8.32
2023-09-27T04:06:58.426Z,8.31
2023-09-27T04:09:24.896Z,8.27
2023-09-27T04:11:51.529Z,8.24
2023-09-27T04:14:19.350Z,8.21
2023-09-27T04:16:45.835Z,8.20
2023-09-27T04:19:12.615Z,8.15
2023-09-27T04:21:39.043Z,8.13
2023-09-27T04:24:06.271Z,8.10
2023-09-27T04:26:32.829Z,8.07
2023-09-27T04:28:59.369Z,8.05
2023-09-27T04:31:27.268Z,8.07
2023-09-27T04:33:53.710Z,8.09
2023-09-27T04:36:20.199Z,8.13
2023-09-27T04:38:47.439Z,8.18
2023-09-27T04:41:14.087Z,8.26
2023-09-27T04:43:40.853Z,8.25
2023-09-27T04:46:07.336Z,8.25
2023-09-27T04:48:35.187Z,8.22
2023-09-27T04:51:02.892Z,8.22
2023-09-27T04:53:29.387Z,8.17
2023-09-27T04:55:56.041Z,8.13
2023-09-27T04:58:22.495Z,8.11
2023-09-27T05:00:49.013Z,8.06
2023-09-27T05:03:15.517Z,8.04
2023-09-27T05:05:43.558Z,8.06
2023-09-27T05:08:10.138Z,8.06
2023-09-27T05:10:36.587Z,8.13
2023-09-27T05:13:03.484Z,8.11
2023-09-27T05:15:30.084Z,8.09
2023-09-27T05:17:56.540Z,8.05
2023-09-27T05:20:23.111Z,8.10
2023-09-27T05:22:50.927Z,8.10
2023-09-27T05:25:17.424Z,8.09
2023-09-27T05:27:44.168Z,8.09
2023-09-27T05:30:11.473Z,8.08
2023-09-27T05:32:38.450Z,8.10
2023-09-27T05:35:05.823Z,8.07
2023-09-27T05:37:32.574Z,8.06
2023-09-27T05:40:00.383Z,8.01
2023-09-27T05:42:28.412Z,7.99
2023-09-27T05:44:54.944Z,7.98
2023-09-27T05:47:21.459Z,8.00
2023-09-27T05:49:48.086Z,7.98
2023-09-27T05:52:14.505Z,7.99
2023-09-27T05:54:41.052Z,8.04
2023-09-27T05:57:08.832Z,8.10
2023-09-27T05:59:35.339Z,8.16
2023-09-27T06:02:01.944Z,8.25
2023-09-27T06:04:28.416Z,8.35
2023-09-27T06:06:54.910Z,8.45
2023-09-27T06:09:21.393Z,8.53
2023-09-27T06:11:47.909Z,8.56
2023-09-27T06:14:15.974Z,8.60
2023-09-27T06:16:42.486Z,8.69
2023-09-27T06:19:09.104Z,8.75
2023-09-27T06:21:35.539Z,8.83
2023-09-27T06:24:02.048Z,8.97
2023-09-27T06:26:28.947Z,9.07
2023-09-27T06:28:55.504Z,9.18
2023-09-27T06:31:23.814Z,9.29
2023-09-27T06:33:50.471Z,9.31
2023-09-27T06:36:16.915Z,9.34
2023-09-27T06:38:44.941Z,9.40
2023-09-27T06:41:11.817Z,9.43
2023-09-27T06:43:38.369Z,9.50
2023-09-27T06:46:09.197Z,9.59
2023-09-27T06:48:37.518Z,9.69
2023-09-27T06:51:04.022Z,9.80
2023-09-27T06:53:33.558Z,9.85
2023-09-27T06:56:00.724Z,9.90
2023-09-27T06:58:27.256Z,9.99
2023-09-27T07:00:53.979Z,10.08
2023-09-27T07:03:20.563Z,10.22
2023-09-27T07:05:48.481Z,10.34
2023-09-27T07:08:15.136Z,10.44
2023-09-27T07:10:41.736Z,10.56
2023-09-27T07:13:08.294Z,10.73
2023-09-27T07:15:34.850Z,10.87
2023-09-27T07:18:01.550Z,11.03
2023-09-27T07:20:28.190Z,11.13
2023-09-27T07:22:56.143Z,11.27
2023-09-27T07:25:23.397Z,11.40
2023-09-27T07:27:50.296Z,11.62
2023-09-27T07:30:17.142Z,11.69
2023-09-27T07:32:43.834Z,11.78
2023-09-27T07:35:10.457Z,11.89
2023-09-27T07:37:37.196Z,11.88
2023-09-27T07:40:07.958Z,11.96
2023-09-27T07:42:35.042Z,12.04
2023-09-27T07:45:02.248Z,12.03
2023-09-27T07:47:28.977Z,12.12
2023-09-27T07:49:55.476Z,12.10
2023-09-27T07:52:21.904Z,12.16
2023-09-27T07:54:48.451Z,12.17
2023-09-27T07:57:16.218Z,12.21
2023-09-27T07:59:42.692Z,12.28
2023-09-27T08:02:09.217Z,12.29
2023-09-27T08:04:35.788Z,12.49
2023-09-27T08:07:02.273Z,12.67
2023-09-27T08:12:01.794Z,12.97
2023-09-27T08:14:29.590Z,12.99
2023-09-27T08:16:56.097Z,13.18
2023-09-27T08:19:22.698Z,13.19
2023-09-27T08:21:49.125Z,13.28
2023-09-27T08:24:15.657Z,13.53
2023-09-27T08:26:42.864Z,13.75
2023-09-27T08:29:10.351Z,13.87
2023-09-27T08:31:38.136Z,13.87
2023-09-27T08:34:04.965Z,14.02
2023-09-27T08:36:31.491Z,14.17
2023-09-27T08:38:58.067Z,14.14
2023-09-27T08:41:25.142Z,14.00
2023-09-27T08:43:53.310Z,13.85
2023-09-27T08:46:21.856Z,13.76
2023-09-27T08:48:50.701Z,14.14
2023-09-27T08:51:17.368Z,14.26
2023-09-27T08:53:43.927Z,14.53
2023-09-27T08:56:12.252Z,14.48
2023-09-27T08:58:40.919Z,14.79
2023-09-27T09:01:07.423Z,14.66
2023-09-27T09:03:34.134Z,14.45
2023-09-27T09:06:02.423Z,14.08
2023-09-27T09:08:42.646Z,13.90
2023-09-27T09:11:12.045Z,13.68
2023-09-27T09:13:54.965Z,13.40
2023-09-27T09:16:21.873Z,13.17
2023-09-27T09:18:48.366Z,13.30
2023-09-27T09:21:16.249Z,13.37
2023-09-27T09:23:42.739Z,13.75
2023-09-27T09:26:10.144Z,14.20
2023-09-27T09:28:53.131Z,14.62
2023-09-27T09:31:22.706Z,14.90
2023-09-27T09:34:02.662Z,15.33
2023-09-27T09:36:30.507Z,15.69
2023-09-27T09:39:04.106Z,16.32
2023-09-27T09:41:44.246Z,16.83
2023-09-27T09:44:17.817Z,17.29
2023-09-27T09:46:44.504Z,17.80
2023-09-27T09:49:10.935Z,17.98
2023-09-27T09:51:41.218Z,18.06
2023-09-27T09:54:08.917Z,18.32
2023-09-27T09:56:50.039Z,18.22
2023-09-27T09:59:26.686Z,17.89
2023-09-27T10:01:57.123Z,17.90
2023-09-27T10:04:25.132Z,17.85
2023-09-27T10:06:54.594Z,17.75
2023-09-27T10:09:21.623Z,17.97
2023-09-27T10:11:49.484Z,18.11
2023-09-27T10:14:18.383Z,18.36
2023-09-27T10:16:45.890Z,18.96
2023-09-27T10:19:12.403Z,19.62
2023-09-27T10:22:03.012Z,20.47
2023-09-27T10:24:29.518Z,20.55
2023-09-27T10:26:55.980Z,20.95
2023-09-27T10:29:22.483Z,21.25
2023-09-27T10:32:22.316Z,21.49
2023-09-27T10:34:50.882Z,21.52
2023-09-27T10:37:57.234Z,21.30
2023-09-27T10:40:23.697Z,21.46
2023-09-27T10:42:50.300Z,21.80
2023-09-27T10:45:17.194Z,22.19
2023-09-27T10:47:43.877Z,22.04
2023-09-27T10:50:10.960Z,21.54
2023-09-27T10:52:39.234Z,20.78
2023-09-27T10:55:12.933Z,20.85
2023-09-27T10:57:41.356Z,21.55
2023-09-27T11:00:08.230Z,22.18
2023-09-27T11:02:34.769Z,22.58
2023-09-27T11:05:01.326Z,22.49
2023-09-27T11:10:36.063Z,22.18
2023-09-27T11:13:10.101Z,22.23
2023-09-27T11:15:36.799Z,22.66
2023-09-27T11:18:03.845Z,23.05
2023-09-27T11:20:30.680Z,23.96
2023-09-27T11:22:57.860Z,24.42
2023-09-27T11:25:27.537Z,24.17
2023-09-27T11:27:56.226Z,23.51
2023-09-27T11:30:26.686Z,22.92
2023-09-27T11:32:53.603Z,22.58
2023-09-27T11:35:20.320Z,23.28
2023-09-27T11:37:47.081Z,24.10
2023-09-27T11:40:13.515Z,24.71
2023-09-27T11:42:40.137Z,25.02
2023-09-27T11:45:10.177Z,25.65
2023-09-27T11:47:46.453Z,26.08
2023-09-27T11:50:13.246Z,26.51
2023-09-27T11:52:39.708Z,27.15
2023-09-27T11:55:06.848Z,27.63
2023-09-27T11:57:33.298Z,27.55
2023-09-27T11:59:59.721Z,27.59
2023-09-27T12:02:31.101Z,27.54
2023-09-27T12:05:01.880Z,27.36
2023-09-27T12:07:29.013Z,27.52
2023-09-27T12:09:56.062Z,27.71
2023-09-27T12:12:22.759Z,28.07
2023-09-27T12:14:49.253Z,28.38
2023-09-27T12:17:15.858Z,28.01
2023-09-27T12:19:43.690Z,28.32
2023-09-27T12:22:10.345Z,28.82
2023-09-27T12:24:36.770Z,28.87
2023-09-27T12:27:03.359Z,28.62
2023-09-27T12:29:30.694Z,27.64
2023-09-27T12:31:57.345Z,27.98
2023-09-27T12:34:23.933Z,27.54
2023-09-27T12:36:51.718Z,27.92
2023-09-27T12:39:20.838Z,28.12
2023-09-27T12:41:47.490Z,28.00
2023-09-27T12:44:22.153Z,27.86
2023-09-27T12:46:49.332Z,27.74
2023-09-27T12:49:15.903Z,27.73
2023-09-27T12:51:49.488Z,27.08
2023-09-27T12:54:17.912Z,27.32
2023-09-27T12:56:44.458Z,27.88
2023-09-27T12:59:11.407Z,28.82
2023-09-27T13:01:40.513Z,29.32
2023-09-27T13:04:07.567Z,29.42
2023-09-27T13:06:34.101Z,29.67
2023-09-27T13:09:00.673Z,29.74
2023-09-27T13:11:28.498Z,29.39
2023-09-27T13:13:54.990Z,29.05
2023-09-27T13:16:21.571Z,29.37
2023-09-27T13:18:48.005Z,29.58
2023-09-27T13:21:14.447Z,29.66
2023-09-27T13:23:41.252Z,29.21
2023-09-27T13:26:07.927Z,29.63
2023-09-27T13:28:35.743Z,29.74
2023-09-27T13:31:02.393Z,29.65
2023-09-27T13:33:28.915Z,29.33
2023-09-27T13:35:58.037Z,28.53
2023-09-27T13:38:25.829Z,28.64
2023-09-27T13:40:52.408Z,28.61
2023-09-27T13:43:18.890Z,28.89
2023-09-27T13:45:48.221Z,29.05
2023-09-27T13:48:15.056Z,28.60
2023-09-27T13:50:41.649Z,28.72
2023-09-27T13:53:08.404Z,29.33
2023-09-27T13:55:34.888Z,29.52
2023-09-27T13:58:01.345Z,29.79
2023-09-27T14:00:27.836Z,29.97
2023-09-27T14:02:56.122Z,29.30
2023-09-27T14:05:22.737Z,29.12
2023-09-27T14:07:49.271Z,28.93
2023-09-27T14:10:15.868Z,29.07
2023-09-27T14:12:42.290Z,29.03
2023-09-27T14:15:09.628Z,29.41
2023-09-27T14:17:36.215Z,29.24
2023-09-27T14:20:04.523Z,28.99
2023-09-27T14:22:30.995Z,29.12
2023-09-27T14:24:57.587Z,29.25
2023-09-27T14:27:24.038Z,29.18
2023-09-27T14:29:50.624Z,29.44
2023-09-27T14:32:17.159Z,29.45
2023-09-27T14:37:24.699Z,29.81
2023-09-27T14:39:51.189Z,29.49
2023-09-27T14:42:17.626Z,29.93
2023-09-27T14:44:44.064Z,29.54
2023-09-27T14:47:10.556Z,29.58
2023-09-27T14:49:37.019Z,29.42
2023-09-27T14:52:03.517Z,29.05
2023-09-27T14:54:31.348Z,28.41
2023-09-27T14:56:57.772Z,28.12
2023-09-27T14:59:24.219Z,28.11
2023-09-27T15:01:50.783Z,28.01
2023-09-27T15:04:17.422Z,27.66
2023-09-27T15:06:43.912Z,27.95
2023-09-27T15:09:10.454Z,27.63
2023-09-27T15:11:38.239Z,27.25
2023-09-27T15:14:04.716Z,27.31
2023-09-27T15:16:31.241Z,27.37
2023-09-27T15:18:57.801Z,27.19
2023-09-27T15:21:24.294Z,27.00
2023-09-27T15:23:50.731Z,26.72
2023-09-27T15:26:17.366Z,26.52
2023-09-27T15:28:45.509Z,26.35
2023-09-27T15:31:12.038Z,26.03
2023-09-27T15:33:38.723Z,25.74
2023-09-27T15:36:06.192Z,25.49
2023-09-27T15:38:32.681Z,25.70
2023-09-27T15:40:59.140Z,25.97
2023-09-27T15:43:25.736Z,26.29
2023-09-27T15:45:59.906Z,26.29
2023-09-27T15:48:28.282Z,26.19
2023-09-27T15:50:54.790Z,26.08
2023-09-27T15:53:21.315Z,25.97
2023-09-27T15:55:47.784Z,25.78
2023-09-27T15:58:14.271Z,25.71
2023-09-27T16:00:40.696Z,25.48
2023-09-27T16:03:08.748Z,25.40
2023-09-27T16:05:35.384Z,25.33
2023-09-27T16:08:01.892Z,25.27
2023-09-27T16:10:29.559Z,25.17
2023-09-27T16:12:57.201Z,25.12
2023-09-27T16:15:25.228Z,24.75
2023-09-27T16:17:51.739Z,24.64
2023-09-27T16:20:19.624Z,24.28
2023-09-27T16:22:46.142Z,24.14
2023-09-27T16:25:12.670Z,24.21
2023-09-27T16:27:39.149Z,24.00
2023-09-27T16:30:07.704Z,23.82
2023-09-27T16:32:34.914Z,23.75
2023-09-27T16:35:01.579Z,23.84
2023-09-27T16:37:29.479Z,23.80
2023-09-27T16:39:55.929Z,23.50
2023-09-27T16:42:22.439Z,23.19
2023-09-27T16:44:48.910Z,22.77
2023-09-27T16:47:15.326Z,22.34
2023-09-27T16:49:41.779Z,21.91
2023-09-27T16:52:08.213Z,21.57
2023-09-27T16:54:36.101Z,21.23
2023-09-27T16:57:02.583Z,20.98
2023-09-27T16:59:29.090Z,20.73
2023-09-27T17:01:55.662Z,20.48
2023-09-27T17:04:22.213Z,20.24
2023-09-27T17:06:48.692Z,20.03
2023-09-27T17:09:15.124Z,19.81
2023-09-27T17:11:43.087Z,19.61
2023-09-27T17:14:09.555Z,19.43
2023-09-27T17:16:36.174Z,19.30
2023-09-27T17:19:02.714Z,19.14
2023-09-27T17:21:29.210Z,18.99
2023-09-27T17:23:56.312Z,18.84
2023-09-27T17:26:23.023Z,18.67
2023-09-27T17:28:52.117Z,18.60
2023-09-27T17:31:18.864Z,18.47
2023-09-27T17:33:45.368Z,18.34
2023-09-27T17:36:11.877Z,18.21
2023-09-27T17:38:38.340Z,18.03
2023-09-27T17:41:04.814Z,17.94
2023-09-27T17:43:31.242Z,17.82
2023-09-27T17:45:59.078Z,17.68
2023-09-27T17:48:25.569Z,17.59
2023-09-27T17:50:52.072Z,17.42
2023-09-27T17:53:18.642Z,17.28
2023-09-27T17:55:45.206Z,17.14
2023-09-27T17:58:12.075Z,17.04
2023-09-27T18:00:38.569Z,16.86
2023-09-27T18:03:06.678Z,16.71
2023-09-27T18:05:33.203Z,16.59
2023-09-27T18:07:59.676Z,16.50
2023-09-27T18:10:26.349Z,16.38
2023-09-27T18:12:52.963Z,16.26
2023-09-27T18:15:27.774Z,16.25
2023-09-27T18:17:55.174Z,16.17
2023-09-27T18:20:23.062Z,16.10
2023-09-27T18:22:49.546Z,16.00
2023-09-27T18:25:16.337Z,15.88
2023-09-27T18:27:42.813Z,15.84
2023-09-27T18:30:10.130Z,15.74
2023-09-27T18:32:36.625Z,15.65
2023-09-27T18:35:03.520Z,15.58
2023-09-27T18:37:31.364Z,15.54
2023-09-27T18:39:57.842Z,15.46
2023-09-27T18:42:24.302Z,15.36
2023-09-27T18:44:50.779Z,15.26
2023-09-27T18:47:17.331Z,15.21
2023-09-27T18:49:43.911Z,15.13
2023-09-27T18:52:10.390Z,15.08
2023-09-27T18:54:38.160Z,15.04
2023-09-27T18:57:04.639Z,15.01
2023-09-27T18:59:31.100Z,14.96
2023-09-27T19:01:57.781Z,14.88
2023-09-27T19:04:24.314Z,14.80
2023-09-27T19:06:50.766Z,14.74
2023-09-27T19:09:17.223Z,14.70
2023-09-27T19:11:45.007Z,14.65
2023-09-27T19:14:11.617Z,14.64
2023-09-27T19:16:38.100Z,14.57
2023-09-27T19:19:04.804Z,14.55
2023-09-27T19:21:31.248Z,14.52
2023-09-27T19:23:57.729Z,14.49
2023-09-27T19:26:24.165Z,14.44
2023-09-27T19:28:52.029Z,14.40
2023-09-27T19:31:18.515Z,14.33
2023-09-27T19:33:45.016Z,14.31
2023-09-27T19:36:13.717Z,14.25
2023-09-27T19:38:40.135Z,14.23
2023-09-27T19:41:06.734Z,14.20
2023-09-27T19:43:33.229Z,14.15
2023-09-27T19:46:01.040Z,14.13
2023-09-27T19:48:27.622Z,14.09
2023-09-27T19:50:54.181Z,14.06
2023-09-27T19:53:20.591Z,14.00
2023-09-27T19:55:47.119Z,13.94
2023-09-27T19:58:13.660Z,13.88
2023-09-27T20:00:40.517Z,13.84
2023-09-27T20:03:08.333Z,13.82
2023-09-27T20:05:34.827Z,13.76
2023-09-27T20:08:01.344Z,13.69
2023-09-27T20:10:27.874Z,13.60
2023-09-27T20:12:54.368Z,13.55
2023-09-27T20:15:20.816Z,13.50
2023-09-27T20:17:47.369Z,13.50
2023-09-27T20:20:15.321Z,13.48
2023-09-27T20:22:41.789Z,13.45
2023-09-27T20:25:09.363Z,13.42
2023-09-27T20:27:35.789Z,13.38
2023-09-27T20:30:02.938Z,13.36
2023-09-27T20:32:29.530Z,13.32
2023-09-27T20:34:56.120Z,13.28
2023-09-27T20:37:24.106Z,13.23
2023-09-27T20:39:50.559Z,13.19
2023-09-27T20:42:16.997Z,13.19
2023-09-27T20:44:43.465Z,13.13
2023-09-27T20:47:09.969Z,13.10
2023-09-27T20:49:36.510Z,13.06
2023-09-27T20:52:03.087Z,13.01
2023-09-27T20:54:30.863Z,12.95
2023-09-27T20:56:57.326Z,12.91
2023-09-27T20:59:23.822Z,12.86
2023-09-27T21:01:50.306Z,12.82
2023-09-27T21:04:16.918Z,12.79
2023-09-27T21:06:43.680Z,12.76
2023-09-27T21:09:10.176Z,12.70
2023-09-27T21:11:37.994Z,12.63
2023-09-27T21:14:04.803Z,12.57
2023-09-27T21:16:32.789Z,12.51
2023-09-27T21:19:00.165Z,12.46
2023-09-27T21:21:26.625Z,12.45
2023-09-27T21:23:53.797Z,12.41
2023-09-27T21:26:20.899Z,12.34
2023-09-27T21:28:48.857Z,12.31
2023-09-27T21:31:15.804Z,12.23
2023-09-27T21:33:43.056Z,12.21
2023-09-27T21:36:09.760Z,12.17
2023-09-27T21:38:36.548Z,12.12
2023-09-27T21:41:03.180Z,12.07
2023-09-27T21:43:30.781Z,11.98
2023-09-27T21:45:58.954Z,11.94
2023-09-27T21:48:25.450Z,11.90
2023-09-27T21:50:52.002Z,11.85
2023-09-27T21:53:18.572Z,11.83
2023-09-27T21:55:45.031Z,11.81
2023-09-27T21:58:11.687Z,11.79
2023-09-27T22:00:38.219Z,11.78
2023-09-27T22:03:06.412Z,11.77
2023-09-27T22:05:33.454Z,11.77
2023-09-27T22:08:00.892Z,11.76
2023-09-27T22:10:28.601Z,11.72
2023-09-27T22:12:55.099Z,11.73
2023-09-27T22:15:22.648Z,11.70
2023-09-27T22:17:49.127Z,11.68
2023-09-27T22:20:16.984Z,11.64
2023-09-27T22:22:43.505Z,11.62
2023-09-27T22:25:10.160Z,11.58
2023-09-27T22:27:36.648Z,11.57
2023-09-27T22:30:03.445Z,11.59
2023-09-27T22:32:29.937Z,11.58
2023-09-27T22:34:56.444Z,11.57
2023-09-27T22:37:24.295Z,11.55
2023-09-27T22:39:52.997Z,11.57
2023-09-27T22:42:24.665Z,11.54
2023-09-27T22:44:51.158Z,11.52
2023-09-27T22:47:17.629Z,11.54
2023-09-27T22:49:44.168Z,11.57
2023-09-27T22:52:10.824Z,11.52
2023-09-27T22:54:38.647Z,11.49
2023-09-27T22:57:05.208Z,11.45
2023-09-27T22:59:32.094Z,11.44
2023-09-27T23:01:58.563Z,11.43
2023-09-27T23:04:25.163Z,11.39
2023-09-27T23:06:51.665Z,11.37
2023-09-27T23:09:18.093Z,11.34
2023-09-27T23:11:45.979Z,11.32
2023-09-27T23:14:12.531Z,11.30
2023-09-27T23:16:39.026Z,11.26
2023-09-27T23:19:05.660Z,11.21
2023-09-27T23:21:32.758Z,11.18
2023-09-27T23:23:59.689Z,11.14
2023-09-27T23:26:30.580Z,11.14
2023-09-27T23:28:58.416Z,11.11
2023-09-27T23:31:24.898Z,11.10
2023-09-27T23:33:51.484Z,11.06
2023-09-27T23:36:18.120Z,11.12
2023-09-27T23:38:44.562Z,11.11
2023-09-27T23:41:11.047Z,11.09
2023-09-27T23:43:37.526Z,11.09
2023-09-27T23:46:05.453Z,11.11
2023-09-27T23:48:31.881Z,11.08
2023-09-27T23:50:58.293Z,11.08
2023-09-27T23:53:24.847Z,11.05
2023-09-27T23:55:51.367Z,11.05
2023-09-27T23:58:17.823Z,11.04
